Time;durP1;ratioP1;P1;durP2;ratioP2;P2;SDS_P1;SDS_P2;PMS_P1;PMS_P2;Temp;Humidity;BMP_temperature;BMP_pressure;BME280_temperature;BME280_humidity;BME280_pressure;Samples;Min_cycle;Max_cycle;Signal;HPM_P1;HPM_P2
2022/08/21 00:00:44;;;;;;;0.75;0.75;;;14.00;99.90;;;;;;5116922;28;20019;-74
2022/08/21 00:03:12;;;;;;;0.73;0.60;;;14.00;99.90;;;;;;5117362;28;20501;-72
2022/08/21 00:05:43;;;;;;;0.20;0.20;;;14.10;99.90;;;;;;5116949;28;20076;-72
2022/08/21 00:08:09;;;;;;;2.38;0.93;;;14.20;99.90;;;;;;5116885;28;20030;-72
2022/08/21 00:10:34;;;;;;;1.23;0.32;;;14.30;99.90;;;;;;5116984;28;20103;-74
2022/08/21 00:13:03;;;;;;;1.38;0.17;;;14.20;99.90;;;;;;5116797;28;20070;-73
2022/08/21 00:15:30;;;;;;;0.10;0.10;;;14.20;99.90;;;;;;5116523;28;20072;-73
2022/08/21 00:17:56;;;;;;;0.43;0.30;;;14.20;99.90;;;;;;5116397;28;20442;-72
2022/08/21 00:20:23;;;;;;;0.63;0.45;;;14.20;99.90;;;;;;5116360;28;20495;-76
2022/08/21 00:22:49;;;;;;;0.30;0.30;;;14.20;99.90;;;;;;5116169;28;20035;-74
2022/08/21 00:25:16;;;;;;;0.50;0.50;;;14.20;99.90;;;;;;5116361;28;20020;-78
2022/08/21 00:27:43;;;;;;;1.10;0.45;;;14.20;99.90;;;;;;5116271;28;20024;-72
2022/08/21 00:30:10;;;;;;;0.22;0.22;;;14.30;99.90;;;;;;5116949;28;20024;-72
2022/08/21 00:32:37;;;;;;;4.32;1.20;;;14.40;99.90;;;;;;5116675;28;20387;-72
2022/08/21 00:35:05;;;;;;;0.30;0.30;;;14.40;99.90;;;;;;5116786;28;20019;-72
2022/08/21 00:37:31;;;;;;;0.73;0.73;;;14.50;99.90;;;;;;5116746;28;20120;-72
2022/08/21 00:39:56;;;;;;;0.20;0.20;;;14.40;99.90;;;;;;5097917;28;20020;-72
2022/08/21 00:42:22;;;;;;;0.43;0.43;;;14.50;99.90;;;;;;5116194;28;20027;-73
2022/08/21 00:44:50;;;;;;;0.40;0.40;;;14.60;99.90;;;;;;5116062;28;20011;-72
2022/08/21 00:47:17;;;;;;;0.50;0.50;;;14.50;99.90;;;;;;5115927;28;20019;-77
2022/08/21 00:49:43;;;;;;;1.65;0.65;;;14.50;99.90;;;;;;5115724;28;20396;-73
2022/08/21 00:52:13;;;;;;;0.30;0.30;;;14.40;99.90;;;;;;5116027;28;20372;-72
2022/08/21 00:54:40;;;;;;;0.57;0.47;;;14.30;99.90;;;;;;5115598;28;20492;-73
2022/08/21 00:57:13;;;;;;;1.23;0.75;;;14.30;99.90;;;;;;5097303;28;20035;-73
2022/08/21 00:59:40;;;;;;;0.80;0.75;;;14.20;99.90;;;;;;5097250;28;20031;-73
2022/08/21 01:02:08;;;;;;;0.30;0.30;;;14.10;99.90;;;;;;5115558;28;20441;-74
2022/08/21 01:04:34;;;;;;;0.35;0.35;;;14.10;99.90;;;;;;5115535;28;20383;-74
2022/08/21 01:07:01;;;;;;;0.25;0.25;;;14.00;99.90;;;;;;5115447;28;20476;-72
2022/08/21 01:09:27;;;;;;;0.30;0.30;;;14.10;99.90;;;;;;5115740;28;20061;-73
2022/08/21 01:11:53;;;;;;;1.65;1.55;;;14.00;99.90;;;;;;5115793;28;20027;-74
2022/08/21 01:14:19;;;;;;;0.20;0.20;;;14.00;99.90;;;;;;5097452;28;20027;-72
2022/08/21 01:16:49;;;;;;;0.30;0.30;;;14.00;99.90;;;;;;5115491;28;20019;-72
2022/08/21 01:19:17;;;;;;;0.55;0.55;;;14.00;99.90;;;;;;5097106;28;20066;-72
2022/08/21 01:21:43;;;;;;;1.95;0.70;;;13.90;99.90;;;;;;5115239;28;20026;-74
2022/08/21 01:24:09;;;;;;;0.35;0.35;;;13.90;99.90;;;;;;5115049;28;20020;-73
2022/08/21 01:26:36;;;;;;;0.30;0.30;;;13.90;99.90;;;;;;5096704;28;20027;-72
2022/08/21 01:29:22;;;;;;;1.10;0.90;;;13.90;99.90;;;;;;5096961;28;20387;-72
2022/08/21 01:31:48;;;;;;;0.70;0.40;;;13.80;99.90;;;;;;5115261;28;20077;-72
2022/08/21 01:34:15;;;;;;;0.60;0.20;;;13.80;99.90;;;;;;5114869;28;20031;-73
2022/08/21 01:36:41;;;;;;;4.65;1.00;;;13.80;99.90;;;;;;5096762;28;20019;-72
2022/08/21 01:39:07;;;;;;;0.10;0.10;;;13.80;99.90;;;;;;5115052;28;20031;-73
2022/08/21 01:41:33;;;;;;;0.73;0.50;;;13.80;99.90;;;;;;5114763;28;20027;-72
2022/08/21 01:43:58;;;;;;;1.20;0.60;;;13.80;99.90;;;;;;5114679;28;20062;-73
2022/08/21 01:46:24;;;;;;;0.32;0.32;;;13.80;99.90;;;;;;5114607;28;20019;-73
2022/08/21 01:48:50;;;;;;;0.20;0.20;;;13.90;99.90;;;;;;5114567;28;20034;-73
2022/08/21 01:51:16;;;;;;;0.30;0.30;;;13.90;99.90;;;;;;5114955;28;20448;-72
2022/08/21 01:53:41;;;;;;;0.35;0.35;;;13.90;99.90;;;;;;5114726;28;20087;-72
2022/08/21 01:56:11;;;;;;;0.98;0.60;;;14.00;99.90;;;;;;5114935;28;20031;-72
2022/08/21 01:58:37;;;;;;;0.03;0.03;;;14.00;99.90;;;;;;5114758;28;20028;-74
2022/08/21 02:01:03;;;;;;;0.45;0.45;;;14.00;99.90;;;;;;5096364;28;20038;-73
2022/08/21 02:03:30;;;;;;;0.95;0.70;;;13.90;99.90;;;;;;5114610;28;20492;-72
2022/08/21 02:05:56;;;;;;;2.55;0.65;;;13.90;99.90;;;;;;5114411;28;20533;-73
2022/08/21 02:08:23;;;;;;;0.50;0.50;;;13.90;99.90;;;;;;5114347;28;20031;-72
2022/08/21 02:10:50;;;;;;;0.85;0.75;;;13.90;99.90;;;;;;5114496;28;20050;-73
2022/08/21 02:13:16;;;;;;;0.60;0.60;;;13.90;99.90;;;;;;5114435;28;20111;-73
2022/08/21 02:15:43;;;;;;;0.40;0.40;;;13.90;99.90;;;;;;5114158;28;20016;-73
2022/08/21 02:18:09;;;;;;;1.40;1.30;;;13.80;99.90;;;;;;5095855;28;20041;-72
2022/08/21 02:20:38;;;;;;;0.35;0.35;;;13.80;99.90;;;;;;5114267;28;20019;-72
2022/08/21 02:23:05;;;;;;;0.15;0.15;;;13.80;99.90;;;;;;5095986;28;20379;-72
2022/08/21 02:25:31;;;;;;;12.05;0.65;;;13.80;99.90;;;;;;5114443;28;20066;-72
2022/08/21 02:27:58;;;;;;;0.57;0.57;;;13.80;99.90;;;;;;5114480;28;20024;-72
2022/08/21 02:30:28;;;;;;;0.52;0.50;;;13.80;99.90;;;;;;5114163;28;20028;-72
2022/08/21 02:32:54;;;;;;;0.32;0.32;;;13.70;99.90;;;;;;5114324;28;20024;-72
2022/08/21 02:35:20;;;;;;;0.82;0.65;;;13.70;99.90;;;;;;5114754;28;20022;-72
2022/08/21 02:38:14;;;;;;;0.30;0.30;;;13.60;99.90;;;;;;5114157;28;20494;-72
2022/08/21 02:40:42;;;;;;;0.73;0.68;;;13.50;99.90;;;;;;5110042;28;20038;-72
2022/08/21 02:43:08;;;;;;;1.45;1.38;;;13.40;99.90;;;;;;5114052;28;20357;-72
2022/08/21 02:45:34;;;;;;;0.40;0.40;;;13.40;99.90;;;;;;5113949;28;20506;-71
2022/08/21 02:48:07;;;;;;;1.60;0.95;;;13.30;99.90;;;;;;5113998;28;20028;-72
2022/08/21 02:50:37;;;;;;;0.10;0.10;;;13.30;99.90;;;;;;5113966;28;20074;-76
2022/08/21 02:53:04;;;;;;;1.10;0.35;;;13.20;99.90;;;;;;5114019;28;20457;-72
2022/08/21 02:55:31;;;;;;;0.28;0.28;;;13.20;99.90;;;;;;5096195;28;20437;-72
2022/08/21 02:57:58;;;;;;;0.43;0.43;;;13.20;99.90;;;;;;5114137;28;20031;-77
2022/08/21 03:00:26;;;;;;;0.30;0.30;;;13.10;99.90;;;;;;5114138;28;20027;-73
2022/08/21 03:02:53;;;;;;;0.63;0.60;;;13.10;99.90;;;;;;5114305;28;20480;-72
2022/08/21 03:05:19;;;;;;;0.50;0.40;;;13.10;99.90;;;;;;5095742;28;20020;-78
2022/08/21 03:07:46;;;;;;;0.63;0.63;;;13.00;99.90;;;;;;5114413;28;20080;-72
2022/08/21 03:10:13;;;;;;;0.93;0.93;;;13.00;99.90;;;;;;5114252;28;20023;-72
2022/08/21 03:12:39;;;;;;;0.98;0.32;;;13.00;99.90;;;;;;5114078;28;20035;-71
2022/08/21 03:15:10;;;;;;;0.88;0.20;;;13.00;99.90;;;;;;5095610;28;20042;-73
2022/08/21 03:17:36;;;;;;;0.85;0.85;;;13.00;99.90;;;;;;5114094;28;20035;-74
2022/08/21 03:20:05;;;;;;;3.33;1.38;;;13.00;99.90;;;;;;5095455;28;20125;-73
2022/08/21 03:22:31;;;;;;;0.38;0.38;;;12.90;99.90;;;;;;5113598;28;20387;-72
2022/08/21 03:24:57;;;;;;;0.17;0.17;;;12.90;99.90;;;;;;5113980;28;20075;-72
2022/08/21 03:27:24;;;;;;;2.67;1.65;;;12.80;99.90;;;;;;5114034;28;20529;-73
2022/08/21 03:29:49;;;;;;;1.48;1.38;;;12.80;99.90;;;;;;5095522;28;20073;-73
2022/08/21 03:32:15;;;;;;;0.75;0.75;;;12.80;99.90;;;;;;5113730;28;20027;-72
2022/08/21 03:34:41;;;;;;;0.50;0.50;;;12.70;99.90;;;;;;5114379;28;20460;-72
2022/08/21 03:37:08;;;;;;;0.17;0.17;;;12.70;99.90;;;;;;5113608;28;20023;-72
2022/08/21 03:39:34;;;;;;;0.65;0.30;;;12.60;99.90;;;;;;5113686;28;20034;-75
2022/08/21 03:42:00;;;;;;;1.27;0.43;;;12.60;99.90;;;;;;5078651;28;20028;-72
2022/08/21 03:44:28;;;;;;;1.30;0.55;;;12.60;99.90;;;;;;5113656;28;20360;-72
2022/08/21 03:46:54;;;;;;;1.48;1.38;;;12.50;99.90;;;;;;5113722;28;20375;-71
2022/08/21 03:49:21;;;;;;;1.13;0.45;;;12.50;99.90;;;;;;5113928;28;20027;-71
2022/08/21 03:51:46;;;;;;;1.40;1.30;;;12.50;99.90;;;;;;5095670;28;20432;-72
2022/08/21 03:54:12;;;;;;;0.68;0.68;;;12.40;99.90;;;;;;5113243;28;20043;-73
2022/08/21 03:56:39;;;;;;;0.30;0.30;;;12.50;99.90;;;;;;5113157;28;20120;-72
2022/08/21 03:59:05;;;;;;;0.40;0.38;;;12.50;99.90;;;;;;5115699;28;20031;-72
2022/08/21 04:01:31;;;;;;;2.30;0.68;;;12.50;99.90;;;;;;5117159;28;20020;-73
2022/08/21 04:03:57;;;;;;;0.73;0.73;;;12.40;99.90;;;;;;5117006;28;20035;-72
2022/08/21 04:06:22;;;;;;;0.45;0.43;;;12.50;99.90;;;;;;5116865;28;20392;-73
2022/08/21 04:08:48;;;;;;;1.25;0.38;;;12.40;99.90;;;;;;5116864;28;20024;-74
2022/08/21 04:11:14;;;;;;;0.17;0.17;;;12.50;99.90;;;;;;5116833;28;20076;-72
2022/08/21 04:13:40;;;;;;;0.55;0.50;;;12.50;99.90;;;;;;5098455;28;20024;-72
2022/08/21 04:16:07;;;;;;;1.40;0.45;;;12.40;99.90;;;;;;5116841;28;20019;-73
2022/08/21 04:18:33;;;;;;;2.45;1.15;;;12.30;99.90;;;;;;5098305;28;20085;-72
2022/08/21 04:21:01;;;;;;;0.25;0.25;;;12.20;99.90;;;;;;5116766;28;20042;-73
2022/08/21 04:23:27;;;;;;;0.60;0.40;;;12.20;99.90;;;;;;5116631;28;20024;-72
2022/08/21 04:25:55;;;;;;;1.42;0.90;;;12.10;99.90;;;;;;5098344;28;20027;-73
2022/08/21 04:28:23;;;;;;;0.68;0.68;;;12.10;99.90;;;;;;5098292;28;20475;-72
2022/08/21 04:30:50;;;;;;;0.30;0.30;;;12.10;99.90;;;;;;5116301;28;20031;-72
2022/08/21 04:33:16;;;;;;;1.85;0.75;;;12.10;99.90;;;;;;5116429;28;20023;-72
2022/08/21 04:35:42;;;;;;;0.52;0.52;;;12.10;99.90;;;;;;5116207;28;20027;-72
2022/08/21 04:38:08;;;;;;;0.55;0.38;;;12.10;99.90;;;;;;5116451;28;20024;-72
2022/08/21 04:40:34;;;;;;;4.40;0.90;;;12.20;99.90;;;;;;5116328;28;20023;-73
2022/08/21 04:43:07;;;;;;;2.28;1.55;;;12.20;99.90;;;;;;5116181;28;20032;-74
2022/08/21 04:45:38;;;;;;;0.20;0.20;;;12.20;99.90;;;;;;5116274;28;20463;-72
2022/08/21 04:48:06;;;;;;;0.28;0.28;;;12.20;99.90;;;;;;5116076;28;20126;-74
2022/08/21 04:50:39;;;;;;;0.50;0.40;;;12.20;99.90;;;;;;5115991;28;20027;-72
2022/08/21 04:53:39;;;;;;;0.30;0.30;;;12.20;99.90;;;;;;5115873;28;20043;-71
2022/08/21 04:56:08;;;;;;;;;;;12.10;99.90;;;;;;5111330;28;20035;-73
2022/08/21 04:58:36;;;;;;;0.32;0.32;;;12.10;99.90;;;;;;5115939;28;19918;-73
2022/08/21 05:01:04;;;;;;;0.77;0.77;;;12.20;99.90;;;;;;5115918;28;20015;-72
2022/08/21 05:03:33;;;;;;;3.53;0.77;;;12.20;99.90;;;;;;5097593;28;20120;-72
2022/08/21 05:05:59;;;;;;;0.30;0.30;;;12.30;99.90;;;;;;5115848;28;20020;-73
2022/08/21 05:08:26;;;;;;;0.55;0.55;;;12.30;99.90;;;;;;5115829;28;20019;-73
2022/08/21 05:10:53;;;;;;;0.70;0.70;;;12.30;99.90;;;;;;5114743;28;20016;-72
2022/08/21 05:13:19;;;;;;;0.80;0.40;;;12.40;99.90;;;;;;5115721;28;20027;-72
2022/08/21 05:15:46;;;;;;;0.50;0.50;;;12.40;99.90;;;;;;5115593;28;20065;-72
2022/08/21 05:18:12;;;;;;;0.50;0.50;;;12.50;99.90;;;;;;5097330;28;20084;-72
2022/08/21 05:20:38;;;;;;;1.13;1.00;;;12.50;99.90;;;;;;5115616;28;20019;-72
2022/08/21 05:23:13;;;;;;;1.25;0.50;;;12.60;99.90;;;;;;5115701;28;20031;-72
2022/08/21 05:25:39;;;;;;;0.38;0.38;;;12.60;99.90;;;;;;5115410;28;20024;-72
2022/08/21 05:28:06;;;;;;;0.30;0.25;;;12.70;99.90;;;;;;5115319;28;20031;-71
2022/08/21 05:30:32;;;;;;;0.45;0.40;;;12.70;99.90;;;;;;5115263;28;20020;-73
2022/08/21 05:32:59;;;;;;;0.45;0.45;;;12.80;99.90;;;;;;5115300;28;20027;-71
2022/08/21 05:35:30;;;;;;;0.60;0.60;;;12.80;99.90;;;;;;5115181;28;20019;-74
2022/08/21 05:37:56;;;;;;;0.63;0.63;;;12.90;99.90;;;;;;5115098;28;20361;-72
2022/08/21 05:40:22;;;;;;;0.35;0.30;;;12.90;99.90;;;;;;5115103;28;20092;-73
2022/08/21 05:42:48;;;;;;;0.68;0.40;;;13.10;99.90;;;;;;5115029;28;20027;-72
2022/08/21 05:45:14;;;;;;;1.08;0.40;;;13.10;99.90;;;;;;5096652;28;20023;-72
2022/08/21 05:47:40;;;;;;;0.32;0.32;;;13.20;99.90;;;;;;5114959;28;20545;-72
2022/08/21 05:50:06;;;;;;;0.60;0.60;;;13.30;99.90;;;;;;5115051;28;20027;-71
2022/08/21 05:52:31;;;;;;;0.30;0.30;;;13.30;99.90;;;;;;5115108;28;20024;-72
2022/08/21 05:54:57;;;;;;;0.45;0.45;;;13.40;99.90;;;;;;5114957;28;20039;-73
2022/08/21 05:57:25;;;;;;;0.75;0.47;;;13.50;99.90;;;;;;5114426;28;20038;-72
2022/08/21 05:59:51;;;;;;;0.65;0.65;;;13.60;99.90;;;;;;5114409;28;20491;-72
2022/08/21 06:02:21;;;;;;;2.05;0.90;;;13.70;99.90;;;;;;5114304;28;20106;-73
2022/08/21 06:04:47;;;;;;;0.30;0.30;;;13.70;99.90;;;;;;5114287;28;20380;-72
2022/08/21 06:07:12;;;;;;;0.60;0.55;;;13.80;99.90;;;;;;5114355;28;20051;-74
2022/08/21 06:09:38;;;;;;;0.22;0.22;;;13.90;99.90;;;;;;5114300;28;20058;-73
2022/08/21 06:12:06;;;;;;;0.10;0.10;;;14.00;99.90;;;;;;5114303;28;20024;-74
2022/08/21 06:14:32;;;;;;;0.40;0.40;;;14.20;99.90;;;;;;5114227;28;20039;-74
2022/08/21 06:17:09;;;;;;;0.88;0.63;;;14.30;99.90;;;;;;5114040;28;20034;-73
2022/08/21 06:19:35;;;;;;;0.75;0.55;;;14.50;99.90;;;;;;5113947;28;20357;-75
2022/08/21 06:22:01;;;;;;;0.20;0.20;;;14.60;99.90;;;;;;5095673;28;20160;-74
2022/08/21 06:24:27;;;;;;;0.10;0.10;;;14.70;99.90;;;;;;5114065;28;20357;-73
2022/08/21 06:26:54;;;;;;;0.60;0.60;;;14.90;99.90;;;;;;5114443;28;20016;-73
2022/08/21 06:29:20;;;;;;;2.20;1.13;;;15.10;99.90;;;;;;5114362;28;20130;-76
2022/08/21 06:31:48;;;;;;;0.38;0.35;;;15.20;99.90;;;;;;5113847;28;20023;-74
2022/08/21 06:34:14;;;;;;;0.10;0.10;;;15.30;99.90;;;;;;5095737;28;20476;-75
2022/08/21 06:36:40;;;;;;;0.25;0.25;;;15.40;99.90;;;;;;5116335;28;20357;-73
2022/08/21 06:39:06;;;;;;;0.38;0.38;;;15.50;99.90;;;;;;5113734;28;20031;-74
2022/08/21 06:41:32;;;;;;;0.65;0.55;;;15.70;99.90;;;;;;5113713;28;20407;-72
2022/08/21 06:43:58;;;;;;;0.20;0.20;;;15.70;99.90;;;;;;5114128;28;20074;-73
2022/08/21 06:46:25;;;;;;;0.22;0.22;;;15.80;99.90;;;;;;5113906;28;20043;-74
2022/08/21 06:48:51;;;;;;;0.80;0.40;;;15.90;99.90;;;;;;5113703;28;20383;-73
2022/08/21 06:51:18;;;;;;;1.50;0.63;;;16.00;99.90;;;;;;5095522;28;20091;-73
2022/08/21 06:53:44;;;;;;;0.30;0.30;;;16.00;99.90;;;;;;5095307;28;20134;-75
2022/08/21 06:56:10;;;;;;;0.40;0.40;;;16.10;99.90;;;;;;5095301;28;20058;-74
2022/08/21 06:58:35;;;;;;;4.90;1.30;;;16.30;99.90;;;;;;5114663;28;20039;-74
2022/08/21 07:01:03;;;;;;;0.70;0.57;;;16.30;99.90;;;;;;5095378;28;20023;-76
2022/08/21 07:03:38;;;;;;;0.15;0.15;;;16.50;99.90;;;;;;5113907;28;20019;-74
2022/08/21 07:06:06;;;;;;;2.67;1.42;;;16.60;99.90;;;;;;5095141;28;20020;-74
2022/08/21 07:08:32;;;;;;;0.30;0.30;;;16.70;99.90;;;;;;5095409;28;20030;-75
2022/08/21 07:10:59;;;;;;;0.25;0.25;;;16.90;99.90;;;;;;5095620;28;20020;-75
2022/08/21 07:13:26;;;;;;;0.50;0.50;;;16.90;99.90;;;;;;5095057;28;20034;-75
2022/08/21 07:15:52;;;;;;;0.15;0.15;;;17.00;99.90;;;;;;5113531;28;20016;-75
2022/08/21 07:18:18;;;;;;;1.52;0.25;;;17.10;99.90;;;;;;5113712;28;20028;-73
2022/08/21 07:20:45;;;;;;;0.88;0.60;;;17.20;99.90;;;;;;5113587;28;20019;-76
2022/08/21 07:23:20;;;;;;;0.60;0.60;;;17.20;99.90;;;;;;5113507;28;20035;-76
2022/08/21 07:25:46;;;;;;;1.90;0.47;;;17.20;99.90;;;;;;5095274;28;20030;-74
2022/08/21 07:28:11;;;;;;;0.43;0.43;;;17.30;99.90;;;;;;5113581;28;20106;-74
2022/08/21 07:30:37;;;;;;;0.13;0.13;;;17.30;99.90;;;;;;5094809;28;20124;-75
2022/08/21 07:33:03;;;;;;;0.38;0.35;;;17.50;99.90;;;;;;5113984;28;20383;-75
2022/08/21 07:35:30;;;;;;;0.50;0.50;;;17.60;99.90;;;;;;5117181;28;20019;-75
2022/08/21 07:37:56;;;;;;;0.20;0.20;;;17.60;99.90;;;;;;5118158;28;20059;-74
2022/08/21 07:40:22;;;;;;;0.40;0.40;;;17.80;99.90;;;;;;5099744;28;20023;-73
2022/08/21 07:42:51;;;;;;;1.67;1.42;;;17.90;99.90;;;;;;5122982;28;20049;-75
2022/08/21 07:45:19;;;;;;;1.85;1.30;;;18.10;99.90;;;;;;5102351;28;20026;-74
2022/08/21 07:47:44;;;;;;;0.30;0.30;;;18.40;99.90;;;;;;5105534;28;20035;-74
2022/08/21 07:50:12;;;;;;;0.38;0.38;;;18.70;99.90;;;;;;5100268;28;20019;-74
2022/08/21 07:52:38;;;;;;;0.47;0.47;;;19.20;99.90;;;;;;5101692;28;20023;-75
2022/08/21 07:55:04;;;;;;;1.23;0.98;;;19.50;99.90;;;;;;5104300;28;20073;-76
2022/08/21 07:57:30;;;;;;;0.60;0.60;;;19.90;99.90;;;;;;5099541;28;20484;-76
2022/08/21 07:59:57;;;;;;;0.65;0.65;;;20.10;99.90;;;;;;5120254;28;20095;-76
2022/08/21 08:02:29;;;;;;;0.20;0.20;;;20.30;99.90;;;;;;5104415;28;20059;-77
2022/08/21 08:04:59;;;;;;;0.88;0.40;;;20.60;99.90;;;;;;5100440;28;20024;-73
2022/08/21 08:07:25;;;;;;;3.17;1.00;;;20.80;99.90;;;;;;5120410;28;20041;-75
2022/08/21 08:09:51;;;;;;;0.57;0.43;;;20.80;99.90;;;;;;5126233;28;20207;-77
2022/08/21 08:12:17;;;;;;;0.50;0.50;;;20.60;99.90;;;;;;5126370;28;20024;-76
2022/08/21 08:14:43;;;;;;;0.13;0.13;;;20.60;99.90;;;;;;5126159;28;20026;-73
2022/08/21 08:17:08;;;;;;;0.70;0.70;;;20.80;99.90;;;;;;5119882;28;20032;-75
2022/08/21 08:19:34;;;;;;;0.05;0.05;;;20.80;99.90;;;;;;5116522;28;20383;-74
2022/08/21 08:22:00;;;;;;;0.70;0.70;;;21.00;99.90;;;;;;5117348;28;20026;-74
2022/08/21 08:24:25;;;;;;;0.47;0.47;;;21.50;99.90;;;;;;5116251;28;20065;-74
2022/08/21 08:26:51;;;;;;;0.63;0.63;;;22.50;99.90;;;;;;5116424;28;20089;-75
2022/08/21 08:29:17;;;;;;;0.20;0.20;;;23.00;99.90;;;;;;5116164;28;20030;-73
2022/08/21 08:31:42;;;;;;;1.10;0.13;;;24.10;99.90;;;;;;5116846;28;20027;-76
2022/08/21 08:34:08;;;;;;;0.38;0.38;;;24.80;99.90;;;;;;5119306;28;20027;-75
2022/08/21 08:36:37;;;;;;;0.25;0.15;;;25.40;99.90;;;;;;5098501;28;20463;-80
2022/08/21 08:39:04;;;;;;;0.30;0.30;;;25.90;99.90;;;;;;5115967;28;20035;-81
2022/08/21 08:41:32;;;;;;;0.40;0.40;;;25.90;96.40;;;;;;5097951;28;20020;-74
2022/08/21 08:44:04;;;;;;;0.10;0.10;;;26.30;93.40;;;;;;5115822;28;20114;-74
2022/08/21 08:46:44;;;;;;;1.27;0.55;;;26.50;92.50;;;;;;5097356;28;20030;-74
2022/08/21 08:49:20;;;;;;;22.98;1.10;;;27.10;90.00;;;;;;5097010;28;20157;-74
2022/08/21 08:52:07;;;;;;;0.55;0.55;;;27.00;88.80;;;;;;5115731;28;20049;-75
2022/08/21 08:54:39;;;;;;;0.10;0.10;;;26.60;85.20;;;;;;5115555;28;20043;-79
2022/08/21 08:57:10;;;;;;;0.45;0.30;;;26.50;92.10;;;;;;5097543;28;20039;-79
2022/08/21 08:59:50;;;;;;;0.10;0.10;;;26.20;90.10;;;;;;5097534;28;20028;-74
2022/08/21 09:02:16;;;;;;;0.63;0.63;;;25.60;92.30;;;;;;5115610;28;20024;-73
2022/08/21 09:04:45;;;;;;;0.32;0.22;;;25.30;92.20;;;;;;5115470;28;20023;-74
2022/08/21 09:07:19;;;;;;;0.70;0.30;;;25.20;95.70;;;;;;5097216;28;20460;-74
2022/08/21 09:10:02;;;;;;;0.32;0.32;;;25.60;94.40;;;;;;5097485;28;20463;-74
2022/08/21 09:12:45;;;;;;;0.40;0.40;;;25.80;94.10;;;;;;5115417;28;20016;-74
2022/08/21 09:15:51;;;;;;;0.47;0.47;;;26.30;93.80;;;;;;5097099;28;20567;-74
2022/08/21 09:18:27;;;;;;;0.28;0.28;;;26.70;89.60;;;;;;5097138;28;20040;-74
2022/08/21 09:20:56;;;;;;;0.28;0.28;;;27.00;91.70;;;;;;5096898;28;20609;-73
2022/08/21 09:23:39;;;;;;;3.35;1.08;;;27.10;84.40;;;;;;5096876;28;20453;-73
2022/08/21 09:26:12;;;;;;;0.28;0.28;;;27.10;84.70;;;;;;5096708;28;20023;-73
2022/08/21 09:28:40;;;;;;;0.55;0.55;;;26.20;85.20;;;;;;5116693;28;20061;-74
2022/08/21 09:31:20;;;;;;;0.10;0.10;;;24.90;98.00;;;;;;5098238;28;20110;-75
2022/08/21 09:33:45;;;;;;;1.08;0.30;;;24.60;99.90;;;;;;5096667;28;20539;-74
2022/08/21 09:36:11;;;;;;;0.43;0.43;;;24.90;99.90;;;;;;5096793;28;20118;-79
2022/08/21 09:38:37;;;;;;;0.30;0.30;;;25.20;99.90;;;;;;5114884;28;20129;-74
2022/08/21 09:41:09;;;;;;;0.90;0.50;;;25.60;98.80;;;;;;5114847;28;20027;-74
2022/08/21 09:43:36;;;;;;;0.75;0.35;;;26.00;96.40;;;;;;5114693;28;20574;-75
2022/08/21 09:46:09;;;;;;;0.30;0.30;;;26.10;90.60;;;;;;5114848;28;20056;-73
2022/08/21 09:48:45;;;;;;;0.73;0.73;;;26.10;92.20;;;;;;5114855;28;20016;-80
2022/08/21 09:51:18;;;;;;;0.50;0.50;;;26.50;92.90;;;;;;5114966;28;20939;-79
2022/08/21 09:53:53;;;;;;;0.17;0.17;;;26.60;93.10;;;;;;5096638;28;20051;-74
2022/08/21 09:59:37;;;;;;;0.10;0.10;;;26.70;92.70;;;;;;5079898;28;20043;-73
2022/08/21 10:02:32;;;;;;;0.25;0.25;;;26.50;90.70;;;;;;5096225;28;20035;-73
2022/08/21 10:05:02;;;;;;;0.13;0.13;;;26.50;90.80;;;;;;5114337;28;20035;-74
2022/08/21 10:07:29;;;;;;;;;;;26.30;89.60;;;;;;5114784;28;20024;-75
2022/08/21 10:10:14;;;;;;;0.28;0.28;;;26.30;87.60;;;;;;5114361;28;19904;-74
2022/08/21 10:12:49;;;;;;;1.00;0.95;;;26.10;89.70;;;;;;5096131;28;20016;-74
2022/08/21 10:15:43;;;;;;;0.20;0.20;;;26.10;89.90;;;;;;5114309;28;20023;-74
2022/08/21 10:18:25;;;;;;;0.20;0.20;;;25.70;89.10;;;;;;5066541;28;20043;-74
2022/08/21 10:21:02;;;;;;;0.63;0.63;;;25.80;93.70;;;;;;5095810;28;20020;-75
2022/08/21 10:23:42;;;;;;;0.20;0.20;;;25.90;92.00;;;;;;5113999;28;20011;-80
2022/08/21 10:26:25;;;;;;;0.70;0.20;;;26.20;90.20;;;;;;5096395;28;20030;-75
2022/08/21 10:29:12;;;;;;;0.10;0.10;;;26.00;86.00;;;;;;5095845;28;20031;-73
2022/08/21 10:32:24;;;;;;;0.20;0.20;;;25.60;90.00;;;;;;5095868;28;20027;-73
2022/08/21 10:35:07;;;;;;;0.10;0.10;;;25.50;95.00;;;;;;5085818;28;20050;-73
2022/08/21 10:38:00;;;;;;;0.43;0.43;;;25.60;95.50;;;;;;5113868;28;20051;-74
2022/08/21 10:40:42;;;;;;;0.10;0.10;;;25.70;88.30;;;;;;5113758;28;20054;-74
2022/08/21 10:43:31;;;;;;;0.73;0.65;;;26.20;85.90;;;;;;5113848;28;20023;-80
2022/08/21 10:46:11;;;;;;;;;;;26.70;79.70;;;;;;5095406;28;20046;-75
2022/08/21 10:48:41;;;;;;;0.10;0.10;;;26.50;81.70;;;;;;5113858;28;20378;-74
2022/08/21 10:51:28;;;;;;;0.40;0.40;;;26.10;85.50;;;;;;5113900;28;20019;-80
2022/08/21 10:54:05;;;;;;;0.55;0.13;;;26.40;84.20;;;;;;5113574;28;20044;-75
2022/08/21 10:56:35;;;;;;;0.75;0.38;;;26.80;87.00;;;;;;5113828;28;20039;-75
2022/08/21 10:59:22;;;;;;;0.00;0.00;;;27.00;85.20;;;;;;5095358;28;20036;-77
2022/08/21 11:01:51;;;;;;;1.38;0.15;;;27.20;83.50;;;;;;5095336;28;20027;-78
2022/08/21 11:04:31;;;;;;;0.13;0.13;;;27.60;76.50;;;;;;5113905;28;20027;-77
2022/08/21 11:07:28;;;;;;;1.10;0.95;;;27.60;77.80;;;;;;5096219;28;20027;-75
2022/08/21 11:09:58;;;;;;;0.00;0.00;;;27.90;72.00;;;;;;5093278;28;20403;-77
2022/08/21 11:12:43;;;;;;;0.05;0.05;;;28.60;69.80;;;;;;5099552;28;20115;-74
2022/08/21 11:15:34;;;;;;;0.00;0.00;;;29.00;65.10;;;;;;5117752;28;20125;-74
2022/08/21 11:18:30;;;;;;;0.88;0.20;;;29.00;65.50;;;;;;5099742;28;20031;-80
2022/08/21 11:21:33;;;;;;;0.10;0.10;;;28.60;64.30;;;;;;5099100;28;20055;-80
2022/08/21 11:24:36;;;;;;;1.65;0.77;;;28.50;66.70;;;;;;5099277;28;20383;-73
2022/08/21 11:27:32;;;;;;;0.20;0.20;;;29.20;63.90;;;;;;5117399;28;20015;-79
2022/08/21 11:30:00;;;;;;;0.15;0.15;;;28.90;64.10;;;;;;5099180;28;20027;-76
2022/08/21 11:33:02;;;;;;;0.00;0.00;;;29.90;61.00;;;;;;5117440;28;20019;-77
2022/08/21 11:35:34;;;;;;;0.10;0.10;;;30.10;61.50;;;;;;5117394;28;20102;-79
2022/08/21 11:38:17;;;;;;;0.30;0.30;;;30.00;58.60;;;;;;5117124;28;20550;-77
2022/08/21 11:41:07;;;;;;;0.05;0.03;;;29.60;60.70;;;;;;5117269;28;20020;-79
2022/08/21 11:43:42;;;;;;;0.10;0.10;;;29.30;62.10;;;;;;5117269;28;20023;-76
2022/08/21 11:46:23;;;;;;;0.10;0.10;;;28.40;63.80;;;;;;5117281;28;20077;-75
2022/08/21 11:48:48;;;;;;;0.30;0.30;;;27.70;66.00;;;;;;5117045;28;20023;-73
2022/08/21 11:51:26;;;;;;;0.08;0.08;;;27.20;67.30;;;;;;5117074;28;20548;-77
2022/08/21 11:54:05;;;;;;;0.10;0.10;;;27.60;65.80;;;;;;5116693;28;20464;-78
2022/08/21 11:56:36;;;;;;;0.03;0.03;;;28.30;64.40;;;;;;5116862;28;20019;-75
2022/08/21 11:59:10;;;;;;;0.10;0.10;;;28.80;60.50;;;;;;5116845;28;20480;-76
2022/08/21 12:01:44;;;;;;;0.10;0.10;;;29.40;60.10;;;;;;5098712;28;20023;-76
2022/08/21 12:04:30;;;;;;;1.25;0.10;;;29.90;62.60;;;;;;5116922;28;20028;-78
2022/08/21 12:06:56;;;;;;;0.10;0.10;;;30.50;60.00;;;;;;5116911;28;20110;-74
2022/08/21 12:09:25;;;;;;;0.30;0.30;;;29.70;61.90;;;;;;5116783;28;20055;-77
2022/08/21 12:12:10;;;;;;;0.00;0.00;;;29.50;59.70;;;;;;5116599;28;20035;-75
2022/08/21 12:14:48;;;;;;;0.20;0.20;;;28.90;61.20;;;;;;5116417;28;20027;-74
2022/08/21 12:17:36;;;;;;;0.10;0.10;;;29.40;58.60;;;;;;5098033;28;20030;-74
2022/08/21 12:20:21;;;;;;;0.30;0.20;;;28.80;59.40;;;;;;5116031;28;20472;-74
2022/08/21 12:23:04;;;;;;;0.10;0.10;;;29.60;59.80;;;;;;5116449;28;20030;-74
2022/08/21 12:25:39;;;;;;;0.13;0.13;;;30.10;57.90;;;;;;5116340;28;20020;-76
2022/08/21 12:28:11;;;;;;;0.03;0.03;;;30.70;57.40;;;;;;5116329;28;20031;-74
2022/08/21 12:30:40;;;;;;;0.10;0.10;;;29.30;57.90;;;;;;5116202;28;20072;-75
2022/08/21 12:33:24;;;;;;;0.32;0.10;;;29.40;58.90;;;;;;5097711;28;20062;-73
2022/08/21 12:35:53;;;;;;;0.17;0.17;;;30.20;58.30;;;;;;5116237;28;20020;-74
2022/08/21 12:38:27;;;;;;;0.65;0.10;;;31.00;55.20;;;;;;5116145;28;20053;-75
2022/08/21 12:41:05;;;;;;;0.75;0.10;;;31.30;54.30;;;;;;5115893;28;20032;-73
2022/08/21 12:43:39;;;;;;;0.30;0.25;;;31.40;53.70;;;;;;5115965;28;20089;-74
2022/08/21 12:46:05;;;;;;;0.17;0.17;;;30.90;54.90;;;;;;5115846;28;20408;-73
2022/08/21 12:48:39;;;;;;;0.22;0.17;;;30.70;53.90;;;;;;5116078;28;20055;-74
2022/08/21 12:51:11;;;;;;;0.00;0.00;;;31.30;53.90;;;;;;5097464;28;20027;-78
2022/08/21 12:53:52;;;;;;;0.20;0.20;;;31.10;53.10;;;;;;5115443;28;20101;-73
2022/08/21 12:56:22;;;;;;;0.17;0.17;;;30.70;52.10;;;;;;5115467;28;20030;-74
2022/08/21 12:58:51;;;;;;;1.17;0.10;;;30.80;53.40;;;;;;5115842;28;20032;-75
2022/08/21 13:01:17;;;;;;;;;;;31.20;53.00;;;;;;5116627;28;20023;-75
2022/08/21 13:03:43;;;;;;;0.20;0.20;;;31.80;52.40;;;;;;5115596;28;19915;-74
2022/08/21 13:06:16;;;;;;;0.13;0.10;;;32.10;53.00;;;;;;5115795;28;20032;-74
2022/08/21 13:08:45;;;;;;;6.22;0.93;;;31.50;53.10;;;;;;5115417;28;20019;-74